Time;durP1;ratioP1;P1;durP2;ratioP2;P2;SDS_P1;SDS_P2;PMS_P1;PMS_P2;Temp;Humidity;BMP_temperature;BMP_pressure;BME280_temperature;BME280_humidity;BME280_pressure;Samples;Min_cycle;Max_cycle;Signal;HPM_P1;HPM_P2
2022/08/14 00:00:10;;;;;;;1.50;1.40;;;20.70;99.90;;;;;;5108562;27;20223;-74
2022/08/14 00:02:37;;;;;;;1.10;1.10;;;20.70;99.90;;;;;;5112923;27;20196;-74
2022/08/14 00:05:06;;;;;;;1.30;1.20;;;20.70;99.90;;;;;;5113313;27;20310;-74
2022/08/14 00:07:34;;;;;;;1.08;1.08;;;20.60;99.90;;;;;;5116263;27;20195;-73
2022/08/14 00:10:03;;;;;;;1.10;1.10;;;20.60;99.90;;;;;;5114193;27;20228;-74
2022/08/14 00:12:32;;;;;;;1.30;1.20;;;20.60;99.90;;;;;;5112409;27;20300;-73
2022/08/14 00:14:59;;;;;;;1.35;1.20;;;20.60;99.90;;;;;;5112203;27;20213;-73
2022/08/14 00:17:26;;;;;;;1.27;1.17;;;20.60;99.90;;;;;;5104392;27;20189;-74
2022/08/14 00:19:54;;;;;;;1.30;1.20;;;20.60;99.90;;;;;;5111802;27;20228;-73
2022/08/14 00:22:21;;;;;;;1.35;1.25;;;20.50;99.90;;;;;;5111491;27;20636;-73
2022/08/14 00:24:48;;;;;;;1.23;1.23;;;20.40;99.90;;;;;;5111278;27;20223;-72
2022/08/14 00:27:17;;;;;;;1.42;1.33;;;20.40;99.90;;;;;;5116459;27;20194;-75
2022/08/14 00:29:47;;;;;;;1.10;1.10;;;20.20;99.90;;;;;;5115160;27;20221;-74
2022/08/14 00:32:14;;;;;;;1.23;1.23;;;20.20;99.90;;;;;;5113310;27;20284;-73
2022/08/14 00:34:41;;;;;;;2.08;1.20;;;20.10;99.90;;;;;;5112784;27;20232;-75
2022/08/14 00:37:08;;;;;;;1.20;1.13;;;20.10;99.90;;;;;;5107838;27;20194;-71
2022/08/14 00:39:36;;;;;;;1.50;1.40;;;20.10;99.90;;;;;;5104880;27;20225;-72
2022/08/14 00:42:04;;;;;;;1.33;1.23;;;20.10;99.90;;;;;;5110164;27;20200;-73
2022/08/14 00:44:33;;;;;;;2.13;1.40;;;20.10;99.90;;;;;;5110369;27;20225;-72
2022/08/14 00:47:00;;;;;;;1.50;1.40;;;20.00;99.90;;;;;;5110914;27;20200;-73
2022/08/14 00:49:31;;;;;;;1.20;1.20;;;19.90;99.90;;;;;;5106633;27;20224;-73
2022/08/14 00:51:59;;;;;;;1.02;1.02;;;19.90;99.90;;;;;;5112533;27;20321;-72
2022/08/14 00:54:27;;;;;;;1.42;1.33;;;19.80;99.90;;;;;;5110917;27;20253;-73
2022/08/14 00:56:54;;;;;;;1.40;1.30;;;19.80;99.90;;;;;;5105418;27;20193;-72
2022/08/14 00:59:22;;;;;;;1.10;1.10;;;19.80;99.90;;;;;;5107471;27;20208;-73
2022/08/14 01:01:50;;;;;;;1.25;1.20;;;19.70;99.90;;;;;;5107828;27;20201;-72
2022/08/14 01:04:17;;;;;;;1.00;1.00;;;19.70;99.90;;;;;;5109753;27;20256;-71
2022/08/14 01:06:45;;;;;;;1.40;1.30;;;19.70;99.90;;;;;;5108930;27;20208;-72
2022/08/14 01:09:12;;;;;;;1.38;1.27;;;19.60;99.90;;;;;;5108503;27;20203;-72
2022/08/14 01:11:40;;;;;;;1.40;1.30;;;19.60;99.90;;;;;;5109146;27;20193;-72
2022/08/14 01:14:07;;;;;;;1.40;1.30;;;19.60;99.90;;;;;;5105523;27;20213;-72
2022/08/14 01:16:35;;;;;;;1.35;1.25;;;19.50;99.90;;;;;;5112026;27;20212;-73
2022/08/14 01:21:50;;;;;;;1.17;1.17;;;19.50;99.90;;;;;;5113498;27;20591;-74
2022/08/14 01:24:20;;;;;;;1.40;1.30;;;19.50;99.90;;;;;;5113217;27;20205;-72
2022/08/14 01:26:47;;;;;;;1.65;1.40;;;19.50;99.90;;;;;;5109014;27;20215;-72
2022/08/14 01:29:15;;;;;;;1.38;1.13;;;19.40;99.90;;;;;;5106777;27;20197;-72
2022/08/14 01:31:43;;;;;;;1.50;1.40;;;19.30;99.90;;;;;;5110239;27;20687;-72
2022/08/14 01:34:10;;;;;;;3.40;1.25;;;19.30;99.90;;;;;;5110641;27;20290;-72
2022/08/14 01:36:38;;;;;;;1.23;1.15;;;19.30;99.90;;;;;;5104345;27;20229;-72
2022/08/14 01:39:10;;;;;;;1.40;1.30;;;19.20;99.90;;;;;;5107682;27;20356;-72
2022/08/14 01:41:37;;;;;;;1.50;1.40;;;19.20;99.90;;;;;;5103912;27;20230;-71
2022/08/14 01:44:09;;;;;;;1.40;1.30;;;19.10;99.90;;;;;;5112986;27;20589;-72
2022/08/14 01:46:39;;;;;;;1.58;1.48;;;19.10;99.90;;;;;;5110771;27;20230;-72
2022/08/14 01:49:08;;;;;;;1.40;1.30;;;19.00;99.90;;;;;;5107385;27;20207;-72
2022/08/14 01:51:36;;;;;;;1.20;1.20;;;19.00;99.90;;;;;;5105433;27;20213;-71
2022/08/14 01:54:08;;;;;;;1.60;1.50;;;19.00;99.90;;;;;;5110130;27;20220;-71
2022/08/14 01:56:37;;;;;;;1.10;1.10;;;19.00;99.90;;;;;;5110686;27;20214;-71
2022/08/14 01:59:05;;;;;;;1.35;1.30;;;19.00;99.90;;;;;;5113372;27;20196;-71
2022/08/14 02:01:34;;;;;;;1.20;1.17;;;19.00;99.90;;;;;;5104363;28;20221;-71
2022/08/14 02:04:02;;;;;;;1.10;1.10;;;19.00;99.90;;;;;;5101575;28;20637;-75
2022/08/14 02:06:30;;;;;;;1.40;1.30;;;19.00;99.90;;;;;;5092034;28;20230;-72
2022/08/14 02:08:58;;;;;;;1.10;1.10;;;19.00;99.90;;;;;;5082944;28;20201;-72
2022/08/14 02:11:26;;;;;;;1.83;1.45;;;19.10;99.90;;;;;;5078520;28;20221;-71
2022/08/14 02:13:58;;;;;;;1.50;1.40;;;19.00;99.90;;;;;;5078839;28;20237;-71
2022/08/14 02:16:28;;;;;;;1.23;1.20;;;19.00;99.90;;;;;;5081007;28;21656;-72
2022/08/14 02:18:57;;;;;;;1.40;1.30;;;19.00;99.90;;;;;;5079057;28;20209;-71
2022/08/14 02:21:26;;;;;;;1.35;0.90;;;18.90;99.90;;;;;;5084050;28;20222;-74
2022/08/14 02:23:54;;;;;;;1.40;1.30;;;18.90;99.90;;;;;;5083893;28;20221;-71
2022/08/14 02:26:24;;;;;;;1.25;1.15;;;19.00;99.90;;;;;;5102166;28;20628;-72
2022/08/14 02:28:58;;;;;;;1.15;1.10;;;19.00;99.90;;;;;;5113259;27;20548;-73
2022/08/14 02:31:31;;;;;;;1.20;1.20;;;18.90;99.90;;;;;;5104424;27;20228;-72
2022/08/14 02:33:58;;;;;;;1.17;1.10;;;18.90;99.90;;;;;;5110388;27;20229;-73
2022/08/14 02:36:27;;;;;;;1.77;1.67;;;19.00;99.90;;;;;;5110731;27;20737;-72
2022/08/14 02:38:54;;;;;;;1.38;1.27;;;19.00;99.90;;;;;;5109742;28;20386;-74
2022/08/14 02:41:22;;;;;;;1.52;1.42;;;18.90;99.90;;;;;;5106326;28;20217;-76
2022/08/14 02:43:49;;;;;;;1.40;1.30;;;18.90;99.90;;;;;;5106761;28;20217;-72
2022/08/14 02:46:18;;;;;;;1.88;1.23;;;18.70;99.90;;;;;;5112122;27;20270;-73
2022/08/14 02:48:45;;;;;;;1.50;1.40;;;18.70;99.90;;;;;;5106006;28;22185;-73
2022/08/14 02:51:14;;;;;;;1.55;1.48;;;18.60;99.90;;;;;;5107979;27;20236;-72
2022/08/14 02:53:44;;;;;;;1.55;1.40;;;18.60;99.90;;;;;;5111323;28;20220;-72
2022/08/14 02:56:14;;;;;;;1.42;1.33;;;18.60;99.90;;;;;;5105862;27;20307;-72
2022/08/14 02:58:45;;;;;;;1.40;1.30;;;18.60;99.90;;;;;;5112620;28;20257;-73
2022/08/14 03:01:14;;;;;;;1.10;1.10;;;18.50;99.90;;;;;;5104599;27;20281;-72
2022/08/14 03:03:43;;;;;;;1.58;1.48;;;18.50;99.90;;;;;;5112722;27;20209;-72
2022/08/14 03:06:12;;;;;;;1.52;1.42;;;18.50;99.90;;;;;;5107407;27;20227;-73
2022/08/14 03:08:40;;;;;;;1.40;1.30;;;18.50;99.90;;;;;;5110211;28;20204;-73
2022/08/14 03:11:10;;;;;;;1.15;1.15;;;18.50;99.90;;;;;;5112041;28;20220;-72
2022/08/14 03:13:39;;;;;;;1.60;1.50;;;18.40;99.90;;;;;;5103675;28;20229;-73
2022/08/14 03:16:09;;;;;;;1.30;1.30;;;18.40;99.90;;;;;;5108865;27;20231;-73
2022/08/14 03:18:40;;;;;;;1.25;1.25;;;18.40;99.90;;;;;;5110466;28;20205;-73
2022/08/14 03:21:12;;;;;;;1.80;1.40;;;18.30;99.90;;;;;;5108009;28;20243;-72
2022/08/14 03:23:39;;;;;;;1.60;1.50;;;18.30;99.90;;;;;;5109331;28;20237;-73
2022/08/14 03:26:09;;;;;;;1.73;1.42;;;18.30;99.90;;;;;;5108623;27;20935;-72
2022/08/14 03:28:39;;;;;;;1.60;1.50;;;18.20;99.90;;;;;;5109516;28;21139;-72
2022/08/14 03:31:07;;;;;;;1.60;1.50;;;18.20;99.90;;;;;;5111313;27;20301;-72
2022/08/14 03:33:36;;;;;;;1.40;1.30;;;18.20;99.90;;;;;;5108588;28;20224;-72
2022/08/14 03:36:07;;;;;;;1.25;1.25;;;18.20;99.90;;;;;;5111954;27;20242;-72
2022/08/14 03:38:41;;;;;;;1.25;1.25;;;18.20;99.90;;;;;;5106890;28;20212;-73
2022/08/14 03:41:15;;;;;;;1.60;1.50;;;18.20;99.90;;;;;;5110326;27;20705;-72
2022/08/14 03:43:42;;;;;;;1.05;1.05;;;18.30;99.90;;;;;;5110112;28;20252;-74
2022/08/14 03:46:12;;;;;;;1.52;1.42;;;18.30;99.90;;;;;;5114227;27;20212;-72
2022/08/14 03:48:39;;;;;;;1.42;1.30;;;18.30;99.90;;;;;;5111954;28;20902;-73
2022/08/14 03:51:08;;;;;;;1.23;1.23;;;18.30;99.90;;;;;;5111008;27;20242;-72
2022/08/14 03:53:37;;;;;;;1.13;1.13;;;18.30;99.90;;;;;;5115488;28;20224;-75
2022/08/14 03:56:06;;;;;;;2.35;1.30;;;18.20;99.90;;;;;;5116631;28;20895;-72
2022/08/14 03:58:34;;;;;;;2.28;1.83;;;18.30;99.90;;;;;;5115538;28;20296;-73
2022/08/14 04:01:01;;;;;;;1.25;1.25;;;18.30;99.90;;;;;;5114101;27;20209;-72
2022/08/14 04:03:28;;;;;;;1.30;1.20;;;18.30;99.90;;;;;;5116059;27;20235;-72
2022/08/14 04:05:55;;;;;;;1.38;1.27;;;18.20;99.90;;;;;;5114407;27;20222;-72
2022/08/14 04:08:23;;;;;;;1.50;1.40;;;18.20;99.90;;;;;;5121432;27;20189;-72
2022/08/14 04:10:51;;;;;;;1.08;1.08;;;18.20;99.90;;;;;;5116218;27;20216;-73
2022/08/14 04:13:19;;;;;;;2.58;1.40;;;18.20;99.90;;;;;;5116667;27;20213;-72
2022/08/14 04:15:47;;;;;;;1.48;1.33;;;18.10;99.90;;;;;;5118037;27;20621;-73
2022/08/14 04:18:14;;;;;;;1.55;1.45;;;18.10;99.90;;;;;;5117562;27;20197;-73
2022/08/14 04:20:42;;;;;;;1.27;1.27;;;18.10;99.90;;;;;;5106378;27;20703;-72
2022/08/14 04:23:09;;;;;;;1.60;1.50;;;18.10;99.90;;;;;;5109090;27;20217;-72
2022/08/14 04:25:39;;;;;;;1.60;1.50;;;18.00;99.90;;;;;;5109685;27;20217;-73
2022/08/14 04:28:08;;;;;;;1.65;1.55;;;18.00;99.90;;;;;;5111496;27;20196;-72
2022/08/14 04:30:38;;;;;;;1.40;1.30;;;17.90;99.90;;;;;;5107558;27;21282;-72
2022/08/14 04:33:06;;;;;;;1.15;1.15;;;18.00;99.90;;;;;;5114228;27;20311;-72
2022/08/14 04:35:33;;;;;;;1.45;1.40;;;18.00;99.90;;;;;;5106300;27;20917;-71
2022/08/14 04:43:38;;;;;;;1.50;1.40;;;18.00;99.90;;;;;;5112033;27;20287;-73
2022/08/14 04:46:07;;;;;;;1.40;1.30;;;18.00;99.90;;;;;;5110567;27;20221;-72
2022/08/14 04:48:33;;;;;;;1.50;1.40;;;18.00;99.90;;;;;;5110032;27;20209;-73
2022/08/14 04:51:01;;;;;;;1.38;1.38;;;17.90;99.90;;;;;;5113108;27;20212;-73
2022/08/14 04:53:30;;;;;;;1.25;1.25;;;17.90;99.90;;;;;;5114106;27;20231;-72
2022/08/14 04:55:57;;;;;;;1.50;1.40;;;18.00;99.90;;;;;;5106312;27;20236;-71
2022/08/14 04:58:26;;;;;;;1.50;1.40;;;18.00;99.90;;;;;;5113000;27;20195;-72
2022/08/14 05:00:56;;;;;;;1.40;1.30;;;18.20;99.90;;;;;;5104000;27;20236;-72
2022/08/14 05:03:28;;;;;;;1.27;1.27;;;18.40;99.90;;;;;;5110223;27;20227;-72
2022/08/14 05:05:57;;;;;;;1.40;1.30;;;18.70;99.90;;;;;;5111419;27;20596;-72
2022/08/14 05:08:24;;;;;;;1.73;1.40;;;18.90;99.90;;;;;;5115228;27;20204;-72
2022/08/14 05:10:53;;;;;;;1.27;1.27;;;19.20;99.90;;;;;;5117586;27;20839;-72
2022/08/14 05:13:23;;;;;;;1.70;1.60;;;19.40;99.90;;;;;;5113101;27;20280;-72
2022/08/14 05:15:51;;;;;;;1.20;1.20;;;19.60;99.90;;;;;;5119921;27;20554;-71
2022/08/14 05:18:22;;;;;;;1.80;1.70;;;19.80;99.90;;;;;;5115705;27;20221;-75
2022/08/14 05:20:53;;;;;;;2.17;1.60;;;19.90;99.90;;;;;;5112757;27;20215;-73
2022/08/14 05:23:22;;;;;;;1.52;1.42;;;20.10;99.90;;;;;;5116122;27;20773;-71
2022/08/14 05:25:53;;;;;;;1.40;1.30;;;20.30;99.90;;;;;;5120846;27;20221;-73
2022/08/14 05:28:22;;;;;;;1.50;1.40;;;20.40;99.90;;;;;;5113767;27;20202;-72
2022/08/14 05:30:51;;;;;;;1.60;1.50;;;20.60;99.90;;;;;;5105895;27;20224;-72
2022/08/14 05:33:23;;;;;;;1.70;1.60;;;20.80;99.90;;;;;;5108859;27;20694;-72
2022/08/14 05:35:51;;;;;;;1.60;1.50;;;20.90;99.90;;;;;;5110913;27;20694;-72
2022/08/14 05:38:22;;;;;;;1.73;1.63;;;20.90;99.90;;;;;;5109943;27;20288;-71
2022/08/14 05:40:49;;;;;;;1.73;1.63;;;20.90;99.90;;;;;;5111077;27;20722;-73
2022/08/14 05:43:16;;;;;;;1.60;1.50;;;20.90;99.90;;;;;;5110036;27;20702;-72
2022/08/14 05:45:43;;;;;;;1.80;1.70;;;20.90;99.90;;;;;;5107936;27;20320;-74
2022/08/14 05:48:15;;;;;;;2.25;2.05;;;20.90;99.90;;;;;;5114281;27;20189;-72
2022/08/14 05:50:44;;;;;;;2.08;1.88;;;20.80;99.90;;;;;;5102707;27;20706;-73
2022/08/14 05:53:11;;;;;;;1.90;1.80;;;20.80;99.90;;;;;;5107483;27;20837;-72
2022/08/14 05:55:38;;;;;;;1.70;1.60;;;20.70;99.90;;;;;;5107769;27;20217;-71
2022/08/14 05:58:07;;;;;;;2.08;1.80;;;20.60;99.90;;;;;;5105608;27;20205;-71
2022/08/14 06:00:36;;;;;;;1.80;1.70;;;20.60;99.90;;;;;;5108123;27;20228;-72
2022/08/14 06:03:04;;;;;;;1.70;1.60;;;20.80;99.90;;;;;;5109056;27;20215;-72
2022/08/14 06:05:32;;;;;;;1.92;1.83;;;20.90;99.90;;;;;;5111424;27;20223;-72
2022/08/14 06:08:01;;;;;;;1.80;1.70;;;20.90;99.90;;;;;;5122864;27;20340;-72
2022/08/14 06:10:29;;;;;;;2.33;2.13;;;20.90;99.90;;;;;;5113673;27;20220;-72
2022/08/14 06:12:59;;;;;;;2.50;2.30;;;20.90;99.90;;;;;;5113520;27;20224;-73
2022/08/14 06:15:26;;;;;;;2.03;1.83;;;20.80;99.90;;;;;;5115635;27;20259;-72
2022/08/14 06:17:54;;;;;;;2.17;1.80;;;20.80;99.90;;;;;;5122621;27;20251;-72
2022/08/14 06:20:23;;;;;;;1.92;1.83;;;20.80;99.90;;;;;;5120145;27;20221;-72
2022/08/14 06:22:50;;;;;;;1.83;1.73;;;20.70;99.90;;;;;;5115608;27;20651;-72
2022/08/14 06:25:18;;;;;;;1.80;1.70;;;20.90;99.90;;;;;;5115833;27;20220;-73
2022/08/14 06:27:47;;;;;;;1.75;1.65;;;20.90;99.90;;;;;;5122349;27;20192;-72
2022/08/14 06:30:15;;;;;;;1.67;1.58;;;20.90;99.90;;;;;;5120195;27;20220;-73
2022/08/14 06:32:42;;;;;;;2.05;1.85;;;21.00;99.90;;;;;;5111943;27;20192;-72
2022/08/14 06:35:11;;;;;;;1.90;1.80;;;21.10;99.90;;;;;;5118261;27;20233;-72
2022/08/14 06:37:42;;;;;;;2.00;1.90;;;21.30;99.90;;;;;;5113629;28;20337;-72
2022/08/14 06:40:11;;;;;;;1.90;1.80;;;21.20;99.90;;;;;;5109917;27;20223;-71
2022/08/14 06:42:40;;;;;;;1.77;1.67;;;21.10;99.90;;;;;;5120136;27;20204;-72
2022/08/14 06:45:08;;;;;;;1.92;1.83;;;21.10;99.90;;;;;;5113437;27;20213;-72
2022/08/14 06:47:36;;;;;;;1.80;1.70;;;20.90;99.90;;;;;;5114590;27;20200;-71
2022/08/14 06:50:04;;;;;;;1.90;1.80;;;20.80;99.90;;;;;;5117152;27;20222;-72
2022/08/14 06:52:31;;;;;;;2.72;1.90;;;20.80;99.90;;;;;;5120243;28;20729;-72
2022/08/14 06:54:58;;;;;;;2.33;2.05;;;20.70;99.90;;;;;;5115094;28;20572;-72
2022/08/14 06:57:26;;;;;;;2.38;2.28;;;20.80;99.90;;;;;;5119043;28;20193;-73
2022/08/14 06:59:54;;;;;;;2.38;2.22;;;20.70;99.90;;;;;;5118403;28;20232;-73
2022/08/14 07:07:51;;;;;;;2.13;1.92;;;21.10;99.90;;;;;;5116616;28;20250;-75
2022/08/14 07:10:20;;;;;;;2.10;1.90;;;21.30;99.90;;;;;;5113234;27;20594;-75
2022/08/14 07:12:48;;;;;;;1.92;1.83;;;21.50;99.90;;;;;;5112838;28;20266;-74
2022/08/14 07:15:16;;;;;;;2.15;1.92;;;21.70;99.90;;;;;;5110214;27;20228;-75
2022/08/14 07:17:47;;;;;;;1.92;1.83;;;22.00;99.90;;;;;;5111665;28;20197;-76
2022/08/14 07:20:15;;;;;;;3.08;2.05;;;22.20;99.90;;;;;;5105354;28;20239;-76
2022/08/14 07:22:42;;;;;;;2.15;1.95;;;22.20;99.90;;;;;;5110088;28;20200;-75
2022/08/14 07:25:10;;;;;;;2.47;2.20;;;22.30;99.90;;;;;;5120374;27;20280;-73
2022/08/14 07:27:39;;;;;;;2.00;1.90;;;22.30;99.90;;;;;;5119870;28;20212;-74
2022/08/14 07:30:08;;;;;;;5.57;2.15;;;22.40;99.90;;;;;;5122907;27;20217;-72
2022/08/14 07:32:36;;;;;;;2.13;2.03;;;22.50;99.90;;;;;;5122909;28;20203;-72
2022/08/14 07:35:04;;;;;;;2.42;2.03;;;22.90;99.90;;;;;;5126090;27;20205;-72
2022/08/14 07:37:31;;;;;;;1.98;1.88;;;23.00;99.90;;;;;;5122680;28;20196;-72
2022/08/14 07:39:58;;;;;;;2.28;2.08;;;22.90;99.90;;;;;;5118737;27;20239;-73
2022/08/14 07:42:25;;;;;;;2.38;2.17;;;22.90;99.90;;;;;;5121036;28;20202;-73
2022/08/14 07:44:52;;;;;;;2.20;2.00;;;22.90;99.90;;;;;;5127564;27;20248;-73
2022/08/14 07:47:19;;;;;;;1.40;1.40;;;23.20;99.90;;;;;;5130254;27;20203;-74
2022/08/14 07:50:07;;;;;;;2.03;1.75;;;23.50;99.90;;;;;;5123214;27;20217;-73
2022/08/14 07:52:35;;;;;;;1.75;1.65;;;23.70;99.90;;;;;;5122457;27;20197;-76
2022/08/14 07:55:02;;;;;;;1.75;1.65;;;23.80;99.90;;;;;;5121366;27;20224;-73
2022/08/14 07:57:29;;;;;;;2.00;1.90;;;23.90;99.90;;;;;;5127790;27;20204;-73
2022/08/14 07:59:56;;;;;;;2.10;1.90;;;24.00;99.90;;;;;;5125726;27;20235;-73
2022/08/14 08:02:25;;;;;;;2.40;2.10;;;24.00;99.90;;;;;;5127637;27;20203;-72
2022/08/14 08:04:54;;;;;;;2.00;1.80;;;24.20;99.90;;;;;;5115862;27;20213;-72
2022/08/14 08:07:21;;;;;;;3.85;1.90;;;24.30;99.90;;;;;;5119010;27;20754;-71
2022/08/14 08:09:53;;;;;;;2.10;2.00;;;24.30;99.90;;;;;;5119253;27;20209;-72
2022/08/14 08:12:21;;;;;;;2.20;2.10;;;24.20;99.90;;;;;;5118464;27;20193;-72
2022/08/14 08:14:51;;;;;;;2.13;1.98;;;24.00;99.90;;;;;;5117620;27;20240;-72
2022/08/14 08:17:19;;;;;;;2.38;2.17;;;23.90;99.90;;;;;;5117487;27;20199;-73
2022/08/14 08:19:47;;;;;;;2.47;1.90;;;23.90;99.90;;;;;;5115494;27;20646;-72
2022/08/14 08:22:15;;;;;;;2.55;2.03;;;24.10;99.90;;;;;;5115903;27;20189;-72
2022/08/14 08:24:43;;;;;;;2.55;2.08;;;24.30;99.90;;;;;;5111342;27;20225;-73
2022/08/14 08:27:16;;;;;;;1.90;1.80;;;24.40;99.90;;;;;;5115435;27;21196;-72
2022/08/14 08:29:43;;;;;;;2.10;2.00;;;24.50;99.90;;;;;;5111402;27;20710;-72
2022/08/14 08:32:10;;;;;;;2.83;2.00;;;24.50;99.90;;;;;;5110330;27;20220;-73
2022/08/14 08:34:47;;;;;;;2.10;1.90;;;24.70;99.90;;;;;;5115726;27;20221;-72
2022/08/14 08:37:15;;;;;;;2.28;2.05;;;24.70;99.90;;;;;;5111945;27;20597;-72
2022/08/14 08:39:44;;;;;;;1.90;1.80;;;24.70;99.90;;;;;;5106160;27;20565;-72
2022/08/14 08:42:11;;;;;;;2.47;2.28;;;24.70;99.90;;;;;;5114820;27;20202;-72
2022/08/14 08:44:39;;;;;;;2.20;2.10;;;25.00;99.90;;;;;;5110399;27;20273;-73
2022/08/14 08:47:06;;;;;;;1.65;1.55;;;24.90;99.90;;;;;;5115529;27;20192;-72
2022/08/14 08:49:42;;;;;;;2.17;2.05;;;25.10;99.90;;;;;;5113606;27;20219;-72
2022/08/14 08:52:10;;;;;;;1.95;1.80;;;25.40;99.90;;;;;;5110025;27;20200;-73
2022/08/14 08:54:39;;;;;;;1.60;1.50;;;25.50;99.90;;;;;;5107119;27;20604;-73
2022/08/14 08:57:12;;;;;;;2.10;1.90;;;25.70;99.90;;;;;;5105813;27;20202;-72
2022/08/14 08:59:39;;;;;;;2.20;2.00;;;25.80;99.90;;;;;;5111428;27;20240;-72
2022/08/14 09:02:08;;;;;;;2.55;2.15;;;25.80;99.90;;;;;;5106186;27;20685;-72
2022/08/14 09:04:38;;;;;;;2.88;2.15;;;25.70;99.90;;;;;;5111367;27;20236;-72
2022/08/14 09:07:06;;;;;;;1.85;1.75;;;25.80;99.90;;;;;;5112314;27;20229;-72
2022/08/14 09:09:34;;;;;;;1.95;1.85;;;26.20;99.90;;;;;;5116343;27;20220;-72
2022/08/14 09:12:06;;;;;;;1.60;1.50;;;26.20;99.90;;;;;;5110011;27;20208;-73
2022/08/14 09:14:34;;;;;;;2.63;1.83;;;26.10;99.90;;;;;;5104772;27;20334;-73
2022/08/14 09:17:01;;;;;;;2.63;1.80;;;26.10;99.90;;;;;;5116240;27;20201;-72
2022/08/14 09:19:28;;;;;;;2.35;1.77;;;26.10;99.90;;;;;;5112477;27;20277;-72
2022/08/14 09:21:55;;;;;;;1.95;1.70;;;26.10;99.90;;;;;;5111748;27;20212;-72
2022/08/14 09:24:22;;;;;;;2.40;2.20;;;25.90;99.90;;;;;;5113777;27;20221;-72
2022/08/14 09:26:50;;;;;;;2.08;1.90;;;26.00;99.90;;;;;;5105473;27;20201;-72
2022/08/14 09:29:19;;;;;;;1.98;1.88;;;26.10;99.90;;;;;;5112333;27;20197;-72
2022/08/14 09:31:50;;;;;;;2.17;2.00;;;26.20;99.90;;;;;;5106476;27;20193;-73
2022/08/14 09:34:30;;;;;;;2.05;1.88;;;26.50;99.90;;;;;;5109596;27;20736;-73
2022/08/14 09:37:20;;;;;;;1.80;1.70;;;26.40;99.90;;;;;;5113172;27;20759;-73
2022/08/14 09:39:57;;;;;;;1.80;1.70;;;26.70;99.90;;;;;;5107582;27;20232;-73
2022/08/14 09:42:58;;;;;;;2.95;1.95;;;26.80;99.90;;;;;;5109106;27;20216;-73
2022/08/14 09:45:36;;;;;;;2.13;2.03;;;26.70;99.90;;;;;;5093539;27;20247;-73
2022/08/14 09:48:15;;;;;;;2.80;1.70;;;26.90;99.90;;;;;;5115184;27;20200;-73
2022/08/14 09:50:46;;;;;;;2.33;1.90;;;27.30;99.90;;;;;;5104984;27;20212;-73
2022/08/14 09:53:17;;;;;;;2.10;2.00;;;27.50;99.90;;;;;;5104807;27;20220;-74
2022/08/14 09:55:44;;;;;;;2.15;1.55;;;27.50;99.90;;;;;;5110653;27;20282;-74
2022/08/14 09:58:13;;;;;;;1.98;1.80;;;27.40;99.90;;;;;;5112492;27;20205;-73
2022/08/14 10:00:47;;;;;;;2.00;1.80;;;27.60;99.90;;;;;;5106991;27;20216;-73
2022/08/14 10:03:26;;;;;;;1.98;1.88;;;27.60;99.90;;;;;;5108638;27;20591;-75
2022/08/14 10:06:08;;;;;;;2.13;1.92;;;27.60;99.90;;;;;;5110422;27;20251;-74
2022/08/14 10:08:44;;;;;;;1.65;1.55;;;27.80;99.90;;;;;;5106817;27;20689;-74
2022/08/14 10:11:18;;;;;;;1.90;1.80;;;28.00;99.90;;;;;;5110755;27;20212;-74
2022/08/14 10:13:46;;;;;;;2.35;1.70;;;28.40;99.90;;;;;;5110884;27;20216;-74
2022/08/14 10:16:15;;;;;;;2.58;1.80;;;28.50;99.90;;;;;;5110204;27;20212;-75
2022/08/14 10:18:42;;;;;;;2.10;1.90;;;28.50;99.90;;;;;;5109243;27;20854;-75
2022/08/14 10:21:16;;;;;;;1.85;1.75;;;28.40;99.90;;;;;;5106615;27;20221;-74
2022/08/14 10:23:48;;;;;;;1.70;1.60;;;28.30;99.90;;;;;;5111284;27;20284;-75
2022/08/14 10:26:17;;;;;;;1.73;1.63;;;28.10;99.90;;;;;;5110275;27;20298;-75
2022/08/14 10:28:46;;;;;;;2.05;1.88;;;28.10;99.90;;;;;;5113947;27;20599;-81
2022/08/14 10:31:20;;;;;;;1.48;1.38;;;28.00;99.90;;;;;;5112559;27;20292;-75
2022/08/14 10:33:59;;;;;;;1.60;1.48;;;28.10;99.90;;;;;;5110235;27;20240;-74
2022/08/14 10:36:31;;;;;;;1.60;1.50;;;28.30;99.90;;;;;;5109965;27;20665;-75
2022/08/14 10:39:01;;;;;;;2.28;1.55;;;28.60;99.90;;;;;;5109887;27;20698;-75
2022/08/14 10:41:39;;;;;;;2.03;1.92;;;28.70;99.90;;;;;;5104741;27;20217;-75
2022/08/14 10:44:12;;;;;;;2.13;2.03;;;28.70;99.90;;;;;;5107675;27;20311;-76
2022/08/14 10:46:45;;;;;;;2.33;1.80;;;28.40;99.90;;;;;;5109035;27;20658;-75
2022/08/14 10:49:20;;;;;;;2.00;1.90;;;28.40;99.90;;;;;;5107863;27;20192;-74
2022/08/14 10:52:04;;;;;;;1.50;1.40;;;28.30;99.90;;;;;;5109238;27;20196;-76
2022/08/14 10:54:37;;;;;;;1.80;1.65;;;28.20;99.90;;;;;;5111946;27;20774;-74
2022/08/14 10:57:17;;;;;;;1.60;1.50;;;28.10;99.90;;;;;;5108993;28;20228;-79
2022/08/14 10:59:49;;;;;;;2.38;1.77;;;28.30;99.90;;;;;;5107012;27;20244;-81
2022/08/14 11:02:28;;;;;;;1.60;1.50;;;28.40;99.90;;;;;;5106566;27;20751;-76
2022/08/14 11:05:17;;;;;;;1.70;1.60;;;28.40;99.90;;;;;;5116876;27;20714;-75
2022/08/14 11:07:56;;;;;;;1.30;1.30;;;28.40;99.90;;;;;;5108137;28;20188;-80
2022/08/14 11:10:26;;;;;;;1.70;1.60;;;28.80;99.90;;;;;;5105160;27;20217;-75
2022/08/14 11:12:56;;;;;;;1.52;1.42;;;29.00;99.90;;;;;;5110701;28;20213;-75
2022/08/14 11:15:26;;;;;;;2.22;1.40;;;29.10;99.90;;;;;;5104700;28;20262;-76
2022/08/14 11:17:55;;;;;;;2.80;1.55;;;28.90;99.90;;;;;;5111398;27;20236;-76
2022/08/14 11:20:25;;;;;;;1.60;1.50;;;28.70;99.90;;;;;;5110546;27;20228;-77
2022/08/14 11:22:54;;;;;;;2.67;1.60;;;28.60;99.90;;;;;;5116187;27;20216;-77
2022/08/14 11:25:23;;;;;;;1.55;1.45;;;28.60;99.90;;;;;;5116276;27;20619;-76
2022/08/14 11:27:52;;;;;;;1.42;1.33;;;28.60;99.90;;;;;;5110186;27;20198;-76
2022/08/14 11:30:21;;;;;;;1.63;1.52;;;28.70;99.90;;;;;;5110649;27;20287;-77
2022/08/14 11:32:50;;;;;;;1.30;1.20;;;28.90;99.90;;;;;;5113195;27;20304;-76
2022/08/14 11:35:20;;;;;;;1.77;1.48;;;29.00;99.90;;;;;;5117684;27;20211;-75
2022/08/14 11:37:52;;;;;;;1.90;1.55;;;29.00;99.90;;;;;;5114150;27;20192;-75
2022/08/14 11:40:19;;;;;;;2.03;1.83;;;28.80;99.90;;;;;;5109508;27;20221;-77
2022/08/14 11:42:47;;;;;;;1.40;1.30;;;29.00;99.90;;;;;;5108411;27;20208;-77
2022/08/14 11:45:15;;;;;;;1.55;1.45;;;29.40;99.90;;;;;;5115909;27;20227;-78
2022/08/14 11:47:43;;;;;;;1.60;1.50;;;29.80;99.90;;;;;;5117482;27;20185;-81
2022/08/14 11:50:16;;;;;;;1.40;1.35;;;29.80;99.90;;;;;;5110982;27;20236;-80
2022/08/14 11:52:45;;;;;;;1.67;1.58;;;29.80;99.90;;;;;;5108215;27;20197;-79
2022/08/14 11:55:14;;;;;;;1.58;1.48;;;29.90;99.90;;;;;;5114238;27;20303;-76
2022/08/14 11:57:43;;;;;;;1.63;1.52;;;29.90;99.90;;;;;;5109520;27;20307;-80
2022/08/14 12:00:14;;;;;;;1.48;1.33;;;29.90;99.90;;;;;;5116588;27;20216;-78
2022/08/14 12:02:50;;;;;;;1.52;1.42;;;29.70;99.90;;;;;;5110112;27;20203;-78
2022/08/14 12:05:29;;;;;;;2.67;1.40;;;29.70;99.90;;;;;;5097489;27;20233;-81
2022/08/14 12:07:59;;;;;;;1.80;1.70;;;29.90;99.90;;;;;;5090961;28;20201;-78
2022/08/14 12:10:26;;;;;;;2.35;1.25;;;30.00;99.90;;;;;;5081674;28;20222;-78
2022/08/14 12:12:55;;;;;;;2.25;1.40;;;30.10;99.90;;;;;;5093796;28;20637;-78
2022/08/14 12:15:33;;;;;;;1.60;1.50;;;30.00;99.90;;;;;;5103485;27;20224;-79
2022/08/14 12:18:01;;;;;;;1.75;1.38;;;29.90;99.90;;;;;;5115918;28;20196;-82
2022/08/14 12:20:35;;;;;;;2.53;1.85;;;30.10;99.90;;;;;;5112599;28;20216;-78
2022/08/14 12:23:05;;;;;;;1.73;1.60;;;30.20;99.90;;;;;;5111115;28;20299;-79
2022/08/14 12:25:34;;;;;;;1.70;1.60;;;30.40;99.90;;;;;;5106691;28;20595;-79
2022/08/14 12:28:07;;;;;;;1.27;1.17;;;30.20;99.10;;;;;;5107824;28;20765;-78
2022/08/14 12:30:37;;;;;;;1.42;1.30;;;30.10;99.80;;;;;;5104525;28;20281;-79
2022/08/14 12:33:07;;;;;;;1.55;1.27;;;30.00;99.10;;;;;;5110683;28;20232;-80
2022/08/14 12:35:38;;;;;;;1.40;1.30;;;30.00;99.90;;;;;;5106358;27;21072;-78
2022/08/14 12:38:07;;;;;;;1.50;1.40;;;30.10;99.80;;;;;;5105318;28;20204;-80
2022/08/14 12:40:45;;;;;;;1.30;1.20;;;30.20;99.70;;;;;;5106225;28;20269;-80
2022/08/14 12:43:12;;;;;;;1.50;1.40;;;30.30;99.60;;;;;;5108654;28;20221;-80
2022/08/14 12:45:39;;;;;;;1.85;1.20;;;30.30;99.00;;;;;;5101417;28;20218;-79
2022/08/14 12:48:07;;;;;;;1.42;1.20;;;30.40;99.50;;;;;;5096409;28;20198;-80
2022/08/14 12:50:39;;;;;;;1.40;1.30;;;30.50;98.60;;;;;;5088044;28;20229;-78
2022/08/14 12:53:08;;;;;;;1.90;1.60;;;30.40;97.80;;;;;;5085379;28;20230;-78
2022/08/14 12:55:35;;;;;;;1.52;1.35;;;30.50;97.70;;;;;;5101491;27;20224;-77
2022/08/14 12:58:04;;;;;;;2.08;1.40;;;30.70;97.60;;;;;;5106336;28;20209;-80
2022/08/14 13:00:33;;;;;;;1.50;1.23;;;30.80;98.10;;;;;;5108377;28;20232;-82
2022/08/14 13:03:03;;;;;;;1.52;1.38;;;30.90;97.30;;;;;;5106966;28;20221;-80
2022/08/14 13:05:33;;;;;;;1.60;1.50;;;30.80;96.90;;;;;;5113577;28;20221;-81
2022/08/14 13:08:04;;;;;;;1.30;1.30;;;30.70;96.50;;;;;;5110038;28;20224;-81
2022/08/14 13:10:34;;;;;;;1.55;1.45;;;30.80;96.40;;;;;;5109183;28;20213;-80
2022/08/14 13:13:02;;;;;;;2.22;1.33;;;30.90;96.90;;;;;;5115422;28;20228;-80